Time;durP1;ratioP1;P1;durP2;ratioP2;P2;SDS_P1;SDS_P2;PMS_P1;PMS_P2;Temp;Humidity;BMP_temperature;BMP_pressure;BME280_temperature;BME280_humidity;BME280_pressure;Samples;Min_cycle;Max_cycle;Signal;HPM_P1;HPM_P2
2022/09/21 00:00:00;;;;;;;11.88;10.95;;;;;;;-141.48;100.00;69781.59;5218550;28;20492;-80
2022/09/21 00:02:30;;;;;;;11.43;10.73;;;;;;;-141.48;100.00;69781.59;5218357;28;20025;-80
2022/09/21 00:05:01;;;;;;;11.07;10.00;;;;;;;-141.48;100.00;69781.59;5217274;28;20017;-80
2022/09/21 00:07:31;;;;;;;10.35;9.68;;;;;;;-141.48;100.00;69781.59;5216979;28;20030;-80
2022/09/21 00:10:02;;;;;;;12.18;11.27;;;;;;;-141.48;100.00;69781.59;5218202;28;20084;-80
2022/09/21 00:12:32;;;;;;;11.73;10.93;;;;;;;-141.48;100.00;69781.59;5218448;28;20028;-77
2022/09/21 00:15:08;;;;;;;10.25;9.45;;;;;;;-141.48;100.00;69781.59;5216237;28;20029;-79
2022/09/21 00:17:38;;;;;;;10.27;9.57;;;;;;;-141.48;100.00;69781.59;5201057;28;20033;-80
2022/09/21 00:20:09;;;;;;;11.35;10.38;;;;;;;-141.48;100.00;69781.59;5218873;28;20072;-77
2022/09/21 00:22:40;;;;;;;12.55;11.60;;;;;;;-141.48;100.00;69781.59;5218807;28;20021;-80
2022/09/21 00:25:11;;;;;;;11.88;10.88;;;;;;;-141.48;100.00;69781.59;5198914;28;20021;-80
2022/09/21 00:27:41;;;;;;;10.13;9.43;;;;;;;-141.48;100.00;69781.59;5201129;28;20033;-78
2022/09/21 00:30:12;;;;;;;10.88;10.07;;;;;;;-141.48;100.00;69781.59;5217518;28;20064;-77
2022/09/21 00:32:42;;;;;;;18.55;11.35;;;;;;;-141.48;100.00;69781.59;5217763;28;20018;-80
2022/09/21 00:35:12;;;;;;;11.80;10.73;;;;;;;-141.48;100.00;69781.59;5216650;28;20491;-80
2022/09/21 00:37:43;;;;;;;13.13;12.10;;;;;;;-141.48;100.00;69781.59;5218538;28;20033;-80
2022/09/21 00:40:13;;;;;;;14.20;11.10;;;;;;;-141.48;100.00;69781.59;5217554;28;20021;-80
2022/09/21 00:42:44;;;;;;;12.18;11.15;;;;;;;-141.48;100.00;69781.59;5217620;28;20033;-77
2022/09/21 00:45:19;;;;;;;11.40;10.57;;;;;;;-141.48;100.00;69781.59;5221511;28;20030;-78
2022/09/21 00:47:51;;;;;;;11.43;10.43;;;;;;;-141.48;100.00;69781.59;5222466;28;20051;-80
2022/09/21 00:50:23;;;;;;;11.68;10.90;;;;;;;-141.48;100.00;69781.59;5221105;28;20030;-80
2022/09/21 00:52:57;;;;;;;12.23;11.32;;;;;;;-141.48;100.00;69781.59;5220169;28;20036;-78
2022/09/21 00:55:33;;;;;;;13.30;12.02;;;;;;;-141.48;100.00;69781.59;5220248;28;20053;-80
2022/09/21 00:58:08;;;;;;;14.35;12.82;;;;;;;-141.48;100.00;69781.59;5220803;28;20548;-78
2022/09/21 01:00:39;;;;;;;12.65;11.60;;;;;;;-141.48;100.00;69781.59;5203593;28;20021;-78
2022/09/21 01:03:11;;;;;;;13.32;12.20;;;;;;;-141.48;100.00;69781.59;5203635;28;20033;-80
2022/09/21 01:05:42;;;;;;;12.18;10.57;;;;;;;-141.48;100.00;69781.59;5220312;28;20034;-79
2022/09/21 01:08:14;;;;;;;13.02;11.70;;;;;;;-141.48;100.00;69781.59;5220871;28;20041;-80
2022/09/21 01:10:47;;;;;;;13.23;12.18;;;;;;;-141.48;100.00;69781.59;5221346;28;20088;-80
2022/09/21 01:13:25;;;;;;;11.18;10.32;;;;;;;-141.48;100.00;69781.59;5220532;28;20047;-77
2022/09/21 01:16:29;;;;;;;11.02;10.20;;;;;;;-141.48;100.00;69781.59;5220865;28;20030;-77
2022/09/21 01:19:14;;;;;;;10.80;9.75;;;;;;;-141.48;100.00;69781.59;5221108;28;20345;-80
2022/09/21 01:22:06;;;;;;;10.40;9.50;;;;;;;-141.48;100.00;69781.59;5221237;28;20021;-79
2022/09/21 01:24:59;;;;;;;12.10;11.10;;;;;;;-141.48;100.00;69781.59;5220045;28;20045;-78
2022/09/21 01:27:45;;;;;;;12.80;11.80;;;;;;;-141.48;100.00;69781.59;5221578;28;20100;-79
2022/09/21 01:30:21;;;;;;;11.15;10.30;;;;;;;-141.48;100.00;69781.59;5220673;28;20025;-79
2022/09/21 01:33:06;;;;;;;12.93;11.68;;;;;;;-141.48;100.00;69781.59;5221660;28;20037;-78
2022/09/21 01:35:43;;;;;;;13.07;11.88;;;;;;;-141.48;100.00;69781.59;5219285;28;20017;-80
2022/09/21 01:38:27;;;;;;;10.82;9.93;;;;;;;-141.48;100.00;69781.59;5219876;28;20086;-79
2022/09/21 01:41:02;;;;;;;19.17;11.10;;;;;;;-141.48;100.00;69781.59;5220151;28;20034;-78
2022/09/21 01:43:43;;;;;;;10.98;10.25;;;;;;;-141.48;100.00;69781.59;5218805;28;20043;-79
2022/09/21 01:46:18;;;;;;;13.48;10.18;;;;;;;-141.48;100.00;69781.59;5220261;28;20033;-79
2022/09/21 01:48:54;;;;;;;10.07;9.50;;;;;;;-141.48;100.00;69781.59;5220751;28;20032;-79
2022/09/21 01:51:27;;;;;;;10.95;10.20;;;;;;;-141.48;100.00;69781.59;5219666;28;20032;-80
2022/09/21 01:54:13;;;;;;;11.35;10.65;;;;;;;-141.48;100.00;69781.59;5201830;28;20048;-78
2022/09/21 01:56:50;;;;;;;10.00;9.18;;;;;;;-141.48;100.00;69781.59;5220007;28;20116;-77
2022/09/21 01:59:50;;;;;;;12.18;10.98;;;;;;;-141.48;100.00;69781.59;5202552;28;20021;-79
2022/09/21 02:02:46;;;;;;;10.85;10.15;;;;;;;-141.48;100.00;69781.59;5215658;28;20075;-77
2022/09/21 02:05:20;;;;;;;11.55;10.23;;;;;;;-141.48;100.00;69781.59;5219067;28;20040;-79
2022/09/21 02:07:52;;;;;;;17.45;11.13;;;;;;;-141.48;100.00;69781.59;5220036;28;20033;-76
2022/09/21 02:10:32;;;;;;;12.50;11.27;;;;;;;-141.48;100.00;69781.59;5218496;28;20029;-76
2022/09/21 02:13:04;;;;;;;;;;;;;;;-141.48;100.00;69781.59;5219495;28;20058;-78
2022/09/21 02:16:06;;;;;;;11.40;10.60;;;;;;;-141.48;100.00;69781.59;5217886;28;19930;-79
2022/09/21 02:18:45;;;;;;;12.52;11.27;;;;;;;-141.48;100.00;69781.59;5218669;28;20041;-79
2022/09/21 02:21:27;;;;;;;11.63;10.83;;;;;;;-141.48;100.00;69781.59;5201034;28;20040;-79
2022/09/21 02:24:11;;;;;;;9.75;9.02;;;;;;;-141.48;100.00;69781.59;5218488;28;20288;-77
2022/09/21 02:26:52;;;;;;;16.30;10.32;;;;;;;-141.48;100.00;69781.59;5218983;28;20021;-77
2022/09/21 02:30:01;;;;;;;10.10;9.50;;;;;;;-141.48;100.00;69781.59;5219177;28;20030;-78
2022/09/21 02:33:02;;;;;;;11.80;9.32;;;;;;;-141.48;100.00;69781.59;5218583;28;20030;-80
2022/09/21 02:35:42;;;;;;;11.88;11.00;;;;;;;-141.48;100.00;69781.59;5200300;28;20092;-79
2022/09/21 02:38:36;;;;;;;11.00;10.20;;;;;;;-141.48;100.00;69781.59;5201546;28;20090;-77
2022/09/21 02:41:11;;;;;;;12.85;11.35;;;;;;;-141.48;100.00;69781.59;5219196;28;20052;-79
2022/09/21 02:43:59;;;;;;;11.80;10.75;;;;;;;-141.48;100.00;69781.59;5217814;28;20100;-79
2022/09/21 02:46:58;;;;;;;10.88;10.05;;;;;;;-141.48;100.00;69781.59;5218749;28;20075;-79
2022/09/21 02:49:34;;;;;;;12.63;11.40;;;;;;;-141.48;100.00;69781.59;5233049;22;20076;-80
2022/09/21 02:52:11;;;;;;;11.20;10.20;;;;;;;-141.48;100.00;69781.59;5231303;28;20028;-78
2022/09/21 02:54:46;;;;;;;11.68;10.88;;;;;;;-141.48;100.00;69781.59;5231382;28;20071;-80
2022/09/21 02:57:19;;;;;;;11.52;10.43;;;;;;;-141.48;100.00;69781.59;5232191;28;20083;-81
2022/09/21 02:59:51;;;;;;;12.43;11.40;;;;;;;-141.48;100.00;69781.59;5232570;28;20025;-80
2022/09/21 03:02:21;;;;;;;16.63;10.07;;;;;;;-141.48;100.00;69781.59;5232321;28;20033;-78
2022/09/21 03:04:52;;;;;;;11.40;10.50;;;;;;;-141.48;100.00;69781.59;5229751;28;20086;-80
2022/09/21 03:07:23;;;;;;;9.90;9.23;;;;;;;-141.48;100.00;69781.59;5228837;28;20028;-80
2022/09/21 03:09:53;;;;;;;11.82;10.80;;;;;;;-141.48;100.00;69781.59;5226414;28;20029;-78
2022/09/21 03:12:25;;;;;;;12.75;11.02;;;;;;;-141.48;100.00;69781.59;5226311;28;20032;-79
2022/09/21 03:14:55;;;;;;;8.95;8.43;;;;;;;-141.48;100.00;69781.59;5225906;28;20036;-80
2022/09/21 03:17:26;;;;;;;10.90;10.02;;;;;;;-141.48;100.00;69781.59;5227830;28;20025;-81
2022/09/21 03:19:56;;;;;;;10.43;9.43;;;;;;;-141.48;100.00;69781.59;5225508;28;20025;-81
2022/09/21 03:22:27;;;;;;;12.15;10.95;;;;;;;-141.48;100.00;69781.59;5228378;28;20141;-80
2022/09/21 03:24:57;;;;;;;12.27;11.32;;;;;;;-141.48;100.00;69781.59;5225665;28;20021;-80
2022/09/21 03:27:28;;;;;;;10.75;9.88;;;;;;;-141.48;100.00;69781.59;5227888;28;20506;-80
2022/09/21 03:29:59;;;;;;;11.18;10.48;;;;;;;-141.48;100.00;69781.59;5227726;28;20029;-81
2022/09/21 03:32:29;;;;;;;11.32;10.73;;;;;;;-141.48;100.00;69781.59;5226255;28;20119;-81
2022/09/21 03:34:59;;;;;;;10.35;9.75;;;;;;;-141.48;100.00;69781.59;5226999;28;20033;-80
2022/09/21 03:37:30;;;;;;;11.27;10.50;;;;;;;-141.48;100.00;69781.59;5227279;28;20040;-81
2022/09/21 03:40:01;;;;;;;11.13;10.40;;;;;;;-141.48;100.00;69781.59;5228240;28;20103;-81
2022/09/21 03:42:32;;;;;;;12.35;11.23;;;;;;;-141.48;100.00;69781.59;5226327;28;20025;-80
2022/09/21 03:45:02;;;;;;;11.35;10.35;;;;;;;-141.48;100.00;69781.59;5230615;28;20056;-80
2022/09/21 03:47:33;;;;;;;11.18;9.77;;;;;;;-141.48;100.00;69781.59;5231919;28;20124;-81
2022/09/21 03:50:07;;;;;;;12.48;11.25;;;;;;;-141.48;100.00;69781.59;5229198;28;20110;-80
2022/09/21 03:52:38;;;;;;;13.70;12.45;;;;;;;-141.48;100.00;69781.59;5230249;28;20482;-81
2022/09/21 03:55:08;;;;;;;10.43;9.80;;;;;;;-141.48;100.00;69781.59;5232373;28;20021;-79
2022/09/21 03:57:39;;;;;;;13.73;12.38;;;;;;;-141.48;100.00;69781.59;5228421;28;20024;-81
2022/09/21 04:00:15;;;;;;;12.23;11.18;;;;;;;-141.48;100.00;69781.59;5227118;28;20044;-81
2022/09/21 04:02:45;;;;;;;13.13;10.57;;;;;;;-141.48;100.00;69781.59;5227935;28;20434;-79
2022/09/21 04:05:16;;;;;;;16.52;12.63;;;;;;;-141.48;100.00;69781.59;5228208;28;20048;-80
2022/09/21 04:07:47;;;;;;;11.82;10.73;;;;;;;-141.48;100.00;69781.59;5229638;28;20021;-80
2022/09/21 04:10:20;;;;;;;11.95;10.95;;;;;;;-141.48;100.00;69781.59;5229186;28;20095;-80
2022/09/21 04:12:51;;;;;;;10.32;9.40;;;;;;;-141.48;100.00;69781.59;5227439;28;20029;-79
2022/09/21 04:15:22;;;;;;;12.52;11.45;;;;;;;-141.48;100.00;69781.59;5226003;28;20206;-80
2022/09/21 04:17:53;;;;;;;13.77;12.50;;;;;;;-141.48;100.00;69781.59;5229631;28;20025;-78
2022/09/21 04:20:23;;;;;;;10.60;9.82;;;;;;;-141.48;100.00;69781.59;5233712;28;20106;-78
2022/09/21 04:22:53;;;;;;;16.42;11.35;;;;;;;-141.48;100.00;69781.59;5241603;28;20028;-78
2022/09/21 04:25:24;;;;;;;10.40;9.60;;;;;;;-141.48;100.00;69781.59;5237450;28;20024;-78
2022/09/21 04:27:54;;;;;;;13.70;12.27;;;;;;;-141.48;100.00;69781.59;5228384;28;20017;-80
2022/09/21 04:30:25;;;;;;;13.18;11.98;;;;;;;-141.48;100.00;69781.59;5230138;28;20386;-81
2022/09/21 04:32:55;;;;;;;13.07;12.20;;;;;;;-141.48;100.00;69781.59;5229819;28;20475;-81
2022/09/21 04:35:26;;;;;;;11.45;10.60;;;;;;;-141.48;100.00;69781.59;5227459;28;20032;-78
2022/09/21 04:37:56;;;;;;;11.98;10.95;;;;;;;-141.48;100.00;69781.59;5227035;28;20368;-80
2022/09/21 04:40:27;;;;;;;13.38;12.30;;;;;;;-141.48;100.00;69781.59;5229334;28;20033;-81
2022/09/21 04:42:57;;;;;;;12.38;11.30;;;;;;;-141.48;100.00;69781.59;5229479;28;20025;-81
2022/09/21 04:45:27;;;;;;;12.45;11.55;;;;;;;-141.48;100.00;69781.59;5228958;28;20025;-79
2022/09/21 04:47:58;;;;;;;15.80;13.75;;;;;;;-141.48;100.00;69781.59;5229651;28;20052;-80
2022/09/21 04:50:28;;;;;;;17.65;16.08;;;;;;;-141.48;100.00;69781.59;5229157;28;20047;-80
2022/09/21 04:52:59;;;;;;;13.63;11.48;;;;;;;-141.48;100.00;69781.59;5229562;28;20749;-80
2022/09/21 04:55:29;;;;;;;20.92;12.77;;;;;;;-141.48;100.00;69781.59;5226385;28;20072;-79
2022/09/21 04:57:59;;;;;;;13.52;12.40;;;;;;;-141.48;100.00;69781.59;5229842;28;20025;-79
2022/09/21 05:00:30;;;;;;;12.90;11.77;;;;;;;-141.48;100.00;69781.59;5229124;28;20054;-80
2022/09/21 05:03:01;;;;;;;13.48;12.63;;;;;;;-141.48;100.00;69781.59;5214181;28;20499;-80
2022/09/21 05:05:31;;;;;;;12.25;11.55;;;;;;;-141.48;100.00;69781.59;5206284;28;20025;-79
2022/09/21 05:08:02;;;;;;;15.63;12.88;;;;;;;-141.48;100.00;69781.59;5199261;28;20154;-79
2022/09/21 05:10:32;;;;;;;11.52;10.70;;;;;;;-141.48;100.00;69781.59;5188738;28;20109;-80
2022/09/21 05:13:03;;;;;;;13.57;11.88;;;;;;;-141.48;100.00;69781.59;5187602;28;20049;-80
2022/09/21 05:15:33;;;;;;;14.93;13.82;;;;;;;-141.48;100.00;69781.59;5187562;28;20033;-79
2022/09/21 05:18:04;;;;;;;13.63;11.30;;;;;;;-141.48;100.00;69781.59;5188770;28;20034;-79
2022/09/21 05:20:34;;;;;;;13.13;11.82;;;;;;;-141.48;100.00;69781.59;5189244;28;20380;-80
2022/09/21 05:23:05;;;;;;;12.40;11.10;;;;;;;-141.48;100.00;69781.59;5188296;28;20034;-79
2022/09/21 05:25:35;;;;;;;12.73;11.45;;;;;;;-141.48;100.00;69781.59;5186735;28;20041;-80
2022/09/21 05:28:06;;;;;;;13.38;12.38;;;;;;;-141.48;100.00;69781.59;5188324;28;20030;-80
2022/09/21 05:30:36;;;;;;;13.40;12.40;;;;;;;-141.48;100.00;69781.59;5186577;28;20089;-80
2022/09/21 05:33:11;;;;;;;12.80;11.85;;;;;;;-141.48;100.00;69781.59;5186800;28;20421;-79
2022/09/21 05:35:56;;;;;;;11.63;10.82;;;;;;;-141.48;100.00;69781.59;5186037;28;20108;-79
2022/09/21 05:38:27;;;;;;;11.85;11.05;;;;;;;-141.48;100.00;69781.59;5187732;28;20033;-80
2022/09/21 05:40:58;;;;;;;12.60;11.70;;;;;;;-141.48;100.00;69781.59;5188316;28;20022;-81
2022/09/21 05:43:28;;;;;;;13.82;12.85;;;;;;;-141.48;100.00;69781.59;5184328;28;20513;-80
2022/09/21 05:46:09;;;;;;;17.92;16.67;;;;;;;-141.48;100.00;69781.59;5209133;28;20032;-80
2022/09/21 05:48:40;;;;;;;;;;;;;;;-141.48;100.00;69781.59;5209315;28;20030;-81
2022/09/21 05:51:37;;;;;;;13.95;12.57;;;;;;;-141.48;100.00;69781.59;5210237;28;19913;-81
2022/09/21 05:54:49;;;;;;;14.07;13.15;;;;;;;-141.48;100.00;69781.59;5208942;28;20075;-80
2022/09/21 05:57:27;;;;;;;15.80;14.60;;;;;;;-141.48;100.00;69781.59;5210262;28;20483;-81
2022/09/21 06:00:17;;;;;;;12.85;12.05;;;;;;;-141.48;100.00;69781.59;5210211;28;20040;-82
2022/09/21 06:03:03;;;;;;;13.10;12.00;;;;;;;-141.48;100.00;69781.59;5208843;28;20108;-81
2022/09/21 06:05:33;;;;;;;14.13;13.02;;;;;;;-141.48;100.00;69781.59;5208266;28;20051;-79
2022/09/21 06:08:04;;;;;;;13.32;12.27;;;;;;;-141.48;100.00;69781.59;5209074;28;20112;-80
2022/09/21 06:10:34;;;;;;;14.27;13.07;;;;;;;-141.48;100.00;69781.59;5209259;28;20036;-80
2022/09/21 06:13:05;;;;;;;14.40;13.35;;;;;;;-141.48;100.00;69781.59;5210166;28;20563;-81
2022/09/21 06:15:37;;;;;;;15.57;14.00;;;;;;;-141.48;100.00;69781.59;5209130;28;20048;-81
2022/09/21 06:18:09;;;;;;;14.82;13.73;;;;;;;-141.48;100.00;69781.59;5210226;28;20032;-81
2022/09/21 06:20:39;;;;;;;17.30;14.30;;;;;;;-141.48;100.00;69781.59;5208760;28;20488;-81
2022/09/21 06:23:11;;;;;;;15.45;14.20;;;;;;;-141.48;100.00;69781.59;5209308;28;20029;-81
2022/09/21 06:25:41;;;;;;;13.98;12.88;;;;;;;-141.48;100.00;69781.59;5208878;28;20018;-81
2022/09/21 06:28:12;;;;;;;18.73;15.52;;;;;;;-141.48;100.00;69781.59;5208832;28;20079;-81
2022/09/21 06:30:43;;;;;;;16.63;15.10;;;;;;;-141.48;100.00;69781.59;5208553;28;20026;-80
2022/09/21 06:33:19;;;;;;;15.32;13.95;;;;;;;-141.48;100.00;69781.59;5205977;28;20104;-79
2022/09/21 06:35:53;;;;;;;14.00;12.63;;;;;;;-141.48;100.00;69781.59;5207051;28;20025;-81
2022/09/21 06:38:25;;;;;;;14.18;13.00;;;;;;;-141.48;100.00;69781.59;5207490;28;20053;-80
2022/09/21 06:41:01;;;;;;;14.02;13.07;;;;;;;-141.48;100.00;69781.59;5206400;28;20036;-80
2022/09/21 06:43:32;;;;;;;13.30;12.35;;;;;;;-141.48;100.00;69781.59;5204245;28;20021;-81
2022/09/21 06:46:03;;;;;;;16.25;14.77;;;;;;;-141.48;100.00;69781.59;5210812;28;20276;-82
2022/09/21 06:48:34;;;;;;;18.30;16.85;;;;;;;-141.48;100.00;69781.59;5206703;28;20387;-80
2022/09/21 06:51:05;;;;;;;19.33;17.38;;;;;;;-141.48;100.00;69781.59;5207295;28;20025;-80
2022/09/21 06:53:35;;;;;;;21.25;17.30;;;;;;;-141.48;100.00;69781.59;5205339;28;20125;-81
2022/09/21 06:56:07;;;;;;;19.73;18.00;;;;;;;-141.48;100.00;69781.59;5207579;28;20048;-81
2022/09/21 06:58:38;;;;;;;20.30;18.85;;;;;;;-141.48;100.00;69781.59;5208489;28;20143;-81
2022/09/21 07:01:12;;;;;;;20.08;18.45;;;;;;;-141.48;100.00;69781.59;5208688;28;20018;-81
2022/09/21 07:03:42;;;;;;;21.75;19.55;;;;;;;-141.48;100.00;69781.59;5208802;28;20041;-80
2022/09/21 07:06:14;;;;;;;20.30;18.85;;;;;;;-141.48;100.00;69781.59;5210651;28;20105;-80
2022/09/21 07:08:46;;;;;;;19.65;18.05;;;;;;;-141.48;100.00;69781.59;5208218;28;20032;-81
2022/09/21 07:11:16;;;;;;;21.50;19.63;;;;;;;-141.48;100.00;69781.59;5208790;28;20472;-81
2022/09/21 07:13:47;;;;;;;22.92;21.25;;;;;;;-141.48;100.00;69781.59;5207523;28;20025;-81
2022/09/21 07:16:18;;;;;;;24.15;21.77;;;;;;;-141.48;100.00;69781.59;5207725;28;20022;-81
2022/09/21 07:18:48;;;;;;;21.05;19.67;;;;;;;-141.48;100.00;69781.59;5207409;28;20017;-81
2022/09/21 07:21:19;;;;;;;20.63;18.85;;;;;;;-141.48;100.00;69781.59;5206740;28;20021;-81
2022/09/21 07:23:49;;;;;;;22.35;20.63;;;;;;;-141.48;100.00;69781.59;5205610;28;20021;-83
2022/09/21 07:26:21;;;;;;;22.17;20.52;;;;;;;-141.48;100.00;69781.59;5203676;28;20021;-83
2022/09/21 07:28:52;;;;;;;19.42;17.95;;;;;;;-141.48;100.00;69781.59;5201435;28;20214;-81
2022/09/21 07:31:22;;;;;;;23.80;21.13;;;;;;;-141.48;100.00;69781.59;5203040;28;20112;-79
2022/09/21 07:33:57;;;;;;;20.75;17.90;;;;;;;-141.48;100.00;69781.59;5205595;28;20196;-80
2022/09/21 07:36:27;;;;;;;20.80;18.92;;;;;;;-141.48;100.00;69781.59;5205244;28;20033;-81
2022/09/21 07:38:58;;;;;;;27.00;22.33;;;;;;;-141.48;100.00;69781.59;5207123;28;20044;-81
2022/09/21 07:41:28;;;;;;;20.58;18.80;;;;;;;-141.48;100.00;69781.59;5206672;28;20023;-81
2022/09/21 07:43:58;;;;;;;21.70;19.90;;;;;;;-141.48;100.00;69781.59;5205100;28;20060;-81
2022/09/21 07:46:29;;;;;;;23.15;21.05;;;;;;;-141.48;100.00;69781.59;5207158;28;20475;-80
2022/09/21 07:49:00;;;;;;;23.60;21.58;;;;;;;-141.48;100.00;69781.59;5206162;28;20022;-81
2022/09/21 07:51:30;;;;;;;20.33;18.65;;;;;;;-141.48;100.00;69781.59;5205112;28;20033;-81
2022/09/21 07:54:01;;;;;;;24.67;22.52;;;;;;;-141.48;100.00;69781.59;5204707;28;20126;-81
2022/09/21 07:56:32;;;;;;;20.48;18.92;;;;;;;-141.48;100.00;69781.59;5207151;28;20130;-81
2022/09/21 07:59:05;;;;;;;21.40;19.60;;;;;;;-141.48;100.00;69781.59;5207487;28;20029;-83
2022/09/21 08:01:38;;;;;;;21.42;19.77;;;;;;;-141.48;100.00;69781.59;5205867;28;20029;-81
2022/09/21 08:04:10;;;;;;;20.60;18.88;;;;;;;-141.48;100.00;69781.59;5204204;28;20057;-81
2022/09/21 08:06:40;;;;;;;19.65;18.20;;;;;;;-141.48;100.00;69781.59;5206239;28;20025;-81
2022/09/21 08:09:10;;;;;;;18.77;17.42;;;;;;;-141.48;100.00;69781.59;5208214;28;20032;-81
2022/09/21 08:11:43;;;;;;;20.10;18.50;;;;;;;-141.48;100.00;69781.59;5207939;28;20026;-81
2022/09/21 08:14:18;;;;;;;19.08;17.42;;;;;;;-141.48;100.00;69781.59;5206319;28;20091;-81
2022/09/21 08:16:48;;;;;;;16.98;15.68;;;;;;;-141.48;100.00;69781.59;5206449;28;20234;-81
2022/09/21 08:19:19;;;;;;;28.58;23.40;;;;;;;-141.48;100.00;69781.59;5207066;28;20099;-80
2022/09/21 08:21:50;;;;;;;21.73;19.48;;;;;;;-141.48;100.00;69781.59;5206090;28;20022;-81
2022/09/21 08:24:20;;;;;;;17.83;15.80;;;;;;;-141.48;100.00;69781.59;5205458;28;20070;-82
2022/09/21 08:26:51;;;;;;;15.10;13.90;;;;;;;-141.48;100.00;69781.59;5208408;28;20050;-81
2022/09/21 08:29:25;;;;;;;14.80;13.52;;;;;;;-141.48;100.00;69781.59;5206161;28;20498;-80
2022/09/21 08:31:56;;;;;;;16.65;15.02;;;;;;;-141.48;100.00;69781.59;5206756;28;20025;-81
2022/09/21 08:34:27;;;;;;;14.77;13.60;;;;;;;-141.48;100.00;69781.59;5206516;28;20053;-81
2022/09/21 08:36:57;;;;;;;14.02;11.77;;;;;;;-141.48;100.00;69781.59;5204848;28;20072;-82
2022/09/21 08:39:28;;;;;;;13.18;11.77;;;;;;;-141.48;100.00;69781.59;5206857;28;20167;-79
2022/09/21 08:42:17;;;;;;;12.82;9.77;;;;;;;-141.48;100.00;69781.59;5207398;28;20040;-79
2022/09/21 08:44:53;;;;;;;12.47;11.40;;;;;;;-141.48;100.00;69781.59;5206918;28;20033;-81
2022/09/21 08:47:39;;;;;;;11.65;10.73;;;;;;;-141.48;100.00;69781.59;5211033;28;20268;-81
2022/09/21 08:50:27;;;;;;;10.07;9.05;;;;;;;-141.48;100.00;69781.59;5257550;22;20497;-81
2022/09/21 08:53:04;;;;;;;14.98;11.15;;;;;;;-141.48;100.00;69781.59;5233850;28;20067;-82
2022/09/21 08:55:35;;;;;;;12.52;11.50;;;;;;;-141.48;100.00;69781.59;5233028;28;20517;-81
2022/09/21 08:58:19;;;;;;;10.27;9.48;;;;;;;-141.48;100.00;69781.59;5234359;28;20017;-82
2022/09/21 09:01:17;;;;;;;11.38;10.25;;;;;;;-141.48;100.00;69781.59;5234077;28;20029;-82
2022/09/21 09:04:18;;;;;;;9.82;9.02;;;;;;;-141.48;100.00;69781.59;5188175;28;20449;-82
2022/09/21 09:07:21;;;;;;;9.80;8.43;;;;;;;-141.48;100.00;69781.59;5238062;28;20035;-82
2022/09/21 09:10:16;;;;;;;7.25;6.57;;;;;;;-141.48;100.00;69781.59;5237836;28;20398;-81
2022/09/21 09:13:18;;;;;;;6.30;5.85;;;;;;;-141.48;100.00;69781.59;5235697;28;20056;-81
2022/09/21 09:16:31;;;;;;;6.82;6.32;;;;;;;-141.48;100.00;69781.59;5236224;28;20028;-82
2022/09/21 09:19:20;;;;;;;5.82;5.43;;;;;;;-141.48;100.00;69781.59;5236766;28;20025;-80
2022/09/21 09:21:51;;;;;;;5.17;4.73;;;;;;;-141.48;100.00;69781.59;5238189;28;20085;-82
2022/09/21 09:24:47;;;;;;;4.70;4.05;;;;;;;-141.48;100.00;69781.59;5237570;28;20063;-82
2022/09/21 09:27:26;;;;;;;8.07;4.78;;;;;;;-141.48;100.00;69781.59;5237839;28;20260;-82
2022/09/21 09:30:03;;;;;;;7.10;4.32;;;;;;;-141.48;100.00;69781.59;5237847;28;20032;-83
2022/09/21 09:32:52;;;;;;;6.00;4.78;;;;;;;-141.48;100.00;69781.59;5237871;28;20029;-83
2022/09/21 09:35:43;;;;;;;3.28;3.03;;;;;;;-141.48;100.00;69781.59;5236444;28;20064;-83
2022/09/21 09:38:46;;;;;;;6.38;3.58;;;;;;;-141.48;100.00;69781.59;5236775;28;20028;-83
2022/09/21 09:41:46;;;;;;;5.60;3.83;;;;;;;-141.48;100.00;69781.59;5236984;28;20043;-83
2022/09/21 09:44:46;;;;;;;6.40;2.92;;;;;;;-141.48;100.00;69781.59;5233208;28;20033;-83
2022/09/21 09:47:25;;;;;;;2.65;2.47;;;;;;;-141.48;100.00;69781.59;5235964;28;20483;-83
2022/09/21 09:50:08;;;;;;;5.18;3.03;;;;;;;-141.48;100.00;69781.59;5236990;28;20063;-84
2022/09/21 09:52:39;;;;;;;5.03;2.88;;;;;;;-141.48;100.00;69781.59;5238695;28;20041;-84
2022/09/21 09:55:38;;;;;;;2.42;2.30;;;;;;;-141.48;100.00;69781.59;5238520;28;20017;-84
2022/09/21 09:58:42;;;;;;;5.75;3.75;;;;;;;-141.48;100.00;69781.59;5238635;28;20483;-83
2022/09/21 10:01:35;;;;;;;6.82;2.45;;;;;;;-141.48;100.00;69781.59;5236171;28;20088;-84
2022/09/21 10:04:08;;;;;;;4.28;3.65;;;;;;;-141.48;100.00;69781.59;5236219;28;20028;-83
2022/09/21 10:06:39;;;;;;;6.15;5.45;;;;;;;-141.48;100.00;69781.59;5238248;28;20438;-84
2022/09/21 10:09:30;;;;;;;6.13;3.28;;;;;;;-141.48;100.00;69781.59;5237238;28;20021;-84
2022/09/21 10:12:14;;;;;;;4.63;2.53;;;;;;;-141.48;100.00;69781.59;5239669;28;20027;-84
2022/09/21 10:14:53;;;;;;;4.78;2.90;;;;;;;-141.48;100.00;69781.59;5239541;28;20048;-83
2022/09/21 10:17:24;;;;;;;3.83;3.15;;;;;;;-141.48;100.00;69781.59;5238892;28;20090;-82
2022/09/21 10:20:04;;;;;;;2.70;2.35;;;;;;;-141.48;100.00;69781.59;5236703;28;20103;-82
2022/09/21 10:22:35;;;;;;;2.70;2.60;;;;;;;-141.48;100.00;69781.59;5238681;28;20029;-83
2022/09/21 10:25:13;;;;;;;3.65;1.85;;;;;;;-141.48;100.00;69781.59;5237083;28;20025;-85
2022/09/21 10:27:48;;;;;;;2.92;2.75;;;;;;;-141.48;100.00;69781.59;5237253;28;20024;-82
2022/09/21 10:30:37;;;;;;;2.40;2.08;;;;;;;-141.48;100.00;69781.59;5236194;28;20032;-83
2022/09/21 10:33:19;;;;;;;7.03;2.92;;;;;;;-141.48;100.00;69781.59;5237716;28;20052;-83
2022/09/21 10:35:51;;;;;;;4.63;1.60;;;;;;;-141.48;100.00;69781.59;5236661;28;20346;-84
2022/09/21 10:38:28;;;;;;;1.88;1.63;;;;;;;-141.48;100.00;69781.59;5236854;28;20024;-84
2022/09/21 10:40:59;;;;;;;2.75;2.50;;;;;;;-141.48;100.00;69781.59;5232846;28;20033;-83
2022/09/21 10:43:33;;;;;;;3.40;1.70;;;;;;;-141.48;100.00;69781.59;5215265;28;20051;-83
2022/09/21 10:46:04;;;;;;;4.50;1.98;;;;;;;-141.48;100.00;69781.59;5213599;28;20048;-83
2022/09/21 10:48:35;;;;;;;2.33;2.22;;;;;;;-141.48;100.00;69781.59;5213820;28;20029;-83
2022/09/21 10:51:05;;;;;;;4.03;2.28;;;;;;;-141.48;100.00;69781.59;5214433;28;20035;-83
2022/09/21 10:53:36;;;;;;;2.58;2.38;;;;;;;-141.48;100.00;69781.59;5218828;28;20517;-82
2022/09/21 10:56:14;;;;;;;5.10;2.45;;;;;;;-141.48;100.00;69781.59;5221750;28;20075;-83
2022/09/21 10:59:12;;;;;;;3.00;2.80;;;;;;;-141.48;100.00;69781.59;5222780;28;20025;-82
2022/09/21 11:01:45;;;;;;;2.72;2.00;;;;;;;-141.48;100.00;69781.59;5220428;28;20044;-84
2022/09/21 11:04:41;;;;;;;2.13;2.03;;;;;;;-141.48;100.00;69781.59;5230264;28;20024;-83
2022/09/21 11:07:18;;;;;;;5.82;2.20;;;;;;;-141.48;100.00;69781.59;5245080;28;20481;-83
2022/09/21 11:10:15;;;;;;;2.13;1.90;;;;;;;-141.48;100.00;69781.59;5243010;28;20024;-83
2022/09/21 11:12:54;;;;;;;2.20;2.10;;;;;;;-141.48;100.00;69781.59;5233612;28;20012;-82
2022/09/21 11:15:33;;;;;;;3.35;2.10;;;;;;;-141.48;100.00;69781.59;5224331;28;20030;-82
2022/09/21 11:18:41;;;;;;;1.63;1.52;;;;;;;-141.48;100.00;69781.59;5222024;28;20025;-84
2022/09/21 11:21:16;;;;;;;3.03;2.40;;;;;;;-141.48;100.00;69781.59;5215000;28;20388;-83
2022/09/21 11:24:18;;;;;;;4.22;2.15;;;;;;;-141.48;100.00;69781.59;5216612;28;20026;-82
2022/09/21 11:27:03;;;;;;;1.27;1.27;;;;;;;-141.48;100.00;69781.59;5220868;28;20026;-82
2022/09/21 11:29:44;;;;;;;1.95;1.85;;;;;;;-141.48;100.00;69781.59;5221279;28;20025;-82
2022/09/21 11:32:17;;;;;;;4.13;2.25;;;;;;;-141.48;100.00;69781.59;5222418;28;20076;-83
2022/09/21 11:35:15;;;;;;;2.72;2.58;;;;;;;-141.48;100.00;69781.59;5223052;28;20036;-82
2022/09/21 11:38:08;;;;;;;8.27;2.45;;;;;;;-141.48;100.00;69781.59;5227147;28;20025;-81
2022/09/21 11:40:54;;;;;;;2.42;2.20;;;;;;;-141.48;100.00;69781.59;5227783;28;20025;-82